sensor_id;sensor_type;location;lat;lon;timestamp;P1;durP1;ratioP1;P2;durP2;ratioP2
56363;SDS011;42261;52.094;4.326;2023-03-01T00:02:40;10.38;;;5.30;;
56363;SDS011;42261;52.094;4.326;2023-03-01T00:05:24;8.50;;;5.40;;
56363;SDS011;42261;52.094;4.326;2023-03-01T00:08:08;9.43;;;5.75;;
56363;SDS011;42261;52.094;4.326;2023-03-01T00:13:56;9.52;;;5.57;;
56363;SDS011;42261;52.094;4.326;2023-03-01T00:16:41;7.22;;;4.72;;
56363;SDS011;42261;52.094;4.326;2023-03-01T00:19:25;10.57;;;5.60;;
56363;SDS011;42261;52.094;4.326;2023-03-01T00:22:09;8.50;;;4.57;;
56363;SDS011;42261;52.094;4.326;2023-03-01T00:24:53;10.65;;;5.43;;
56363;SDS011;42261;52.094;4.326;2023-03-01T00:27:37;11.77;;;6.40;;
56363;SDS011;42261;52.094;4.326;2023-03-01T00:30:21;9.82;;;5.75;;
56363;SDS011;42261;52.094;4.326;2023-03-01T00:33:05;13.15;;;5.85;;
56363;SDS011;42261;52.094;4.326;2023-03-01T00:35:49;11.15;;;5.95;;
56363;SDS011;42261;52.094;4.326;2023-03-01T00:38:38;10.02;;;6.07;;
56363;SDS011;42261;52.094;4.326;2023-03-01T00:41:23;12.27;;;6.50;;
56363;SDS011;42261;52.094;4.326;2023-03-01T00:44:07;10.15;;;5.38;;
56363;SDS011;42261;52.094;4.326;2023-03-01T00:46:51;10.20;;;6.07;;
56363;SDS011;42261;52.094;4.326;2023-03-01T00:49:36;13.18;;;6.10;;
56363;SDS011;42261;52.094;4.326;2023-03-01T00:52:20;11.45;;;5.93;;
56363;SDS011;42261;52.094;4.326;2023-03-01T00:55:04;14.95;;;7.18;;
56363;SDS011;42261;52.094;4.326;2023-03-01T00:57:48;13.75;;;5.75;;
56363;SDS011;42261;52.094;4.326;2023-03-01T01:00:33;10.45;;;6.47;;
56363;SDS011;42261;52.094;4.326;2023-03-01T01:03:18;15.50;;;7.38;;
56363;SDS011;42261;52.094;4.326;2023-03-01T01:06:03;14.93;;;6.60;;
56363;SDS011;42261;52.094;4.326;2023-03-01T01:08:54;11.20;;;6.47;;
56363;SDS011;42261;52.094;4.326;2023-03-01T01:11:38;14.50;;;7.25;;
56363;SDS011;42261;52.094;4.326;2023-03-01T01:14:22;12.07;;;6.60;;
56363;SDS011;42261;52.094;4.326;2023-03-01T01:17:06;11.60;;;7.10;;
56363;SDS011;42261;52.094;4.326;2023-03-01T01:19:50;12.05;;;7.35;;
56363;SDS011;42261;52.094;4.326;2023-03-01T01:22:34;15.85;;;7.85;;
56363;SDS011;42261;52.094;4.326;2023-03-01T01:25:19;14.05;;;7.80;;
56363;SDS011;42261;52.094;4.326;2023-03-01T01:28:03;13.85;;;7.60;;
56363;SDS011;42261;52.094;4.326;2023-03-01T01:30:47;15.02;;;7.88;;
56363;SDS011;42261;52.094;4.326;2023-03-01T01:33:31;13.35;;;7.28;;
56363;SDS011;42261;52.094;4.326;2023-03-01T01:36:15;13.77;;;7.10;;
56363;SDS011;42261;52.094;4.326;2023-03-01T01:39:00;15.50;;;8.10;;
56363;SDS011;42261;52.094;4.326;2023-03-01T01:41:44;16.98;;;7.97;;
56363;SDS011;42261;52.094;4.326;2023-03-01T01:44:28;15.18;;;8.60;;
56363;SDS011;42261;52.094;4.326;2023-03-01T01:47:14;15.00;;;7.95;;
56363;SDS011;42261;52.094;4.326;2023-03-01T01:49:59;16.50;;;7.80;;
56363;SDS011;42261;52.094;4.326;2023-03-01T01:52:43;16.55;;;8.63;;
56363;SDS011;42261;52.094;4.326;2023-03-01T01:55:28;13.20;;;8.07;;
56363;SDS011;42261;52.094;4.326;2023-03-01T01:58:13;14.27;;;7.75;;
56363;SDS011;42261;52.094;4.326;2023-03-01T02:01:00;14.27;;;8.35;;
56363;SDS011;42261;52.094;4.326;2023-03-01T02:03:45;16.10;;;8.82;;
56363;SDS011;42261;52.094;4.326;2023-03-01T02:06:34;17.35;;;8.18;;
56363;SDS011;42261;52.094;4.326;2023-03-01T02:12:03;15.57;;;8.23;;
56363;SDS011;42261;52.094;4.326;2023-03-01T02:14:49;15.43;;;8.80;;
56363;SDS011;42261;52.094;4.326;2023-03-01T02:17:35;14.02;;;7.55;;
56363;SDS011;42261;52.094;4.326;2023-03-01T02:20:27;15.07;;;7.75;;
56363;SDS011;42261;52.094;4.326;2023-03-01T02:23:15;14.85;;;7.55;;
56363;SDS011;42261;52.094;4.326;2023-03-01T02:26:15;18.27;;;8.48;;
56363;SDS011;42261;52.094;4.326;2023-03-01T02:29:03;16.70;;;8.18;;
56363;SDS011;42261;52.094;4.326;2023-03-01T02:31:47;18.00;;;9.27;;
56363;SDS011;42261;52.094;4.326;2023-03-01T02:34:32;17.98;;;9.40;;
56363;SDS011;42261;52.094;4.326;2023-03-01T02:37:16;16.15;;;9.32;;
56363;SDS011;42261;52.094;4.326;2023-03-01T02:40:06;17.15;;;8.38;;
56363;SDS011;42261;52.094;4.326;2023-03-01T02:42:58;16.40;;;7.75;;
56363;SDS011;42261;52.094;4.326;2023-03-01T02:45:47;19.60;;;9.70;;
56363;SDS011;42261;52.094;4.326;2023-03-01T02:48:42;19.40;;;9.32;;
56363;SDS011;42261;52.094;4.326;2023-03-01T02:51:38;16.67;;;8.75;;
56363;SDS011;42261;52.094;4.326;2023-03-01T02:54:31;15.55;;;8.30;;
56363;SDS011;42261;52.094;4.326;2023-03-01T02:57:18;18.15;;;8.23;;
56363;SDS011;42261;52.094;4.326;2023-03-01T03:00:04;18.15;;;9.43;;
56363;SDS011;42261;52.094;4.326;2023-03-01T03:02:52;16.80;;;8.13;;
56363;SDS011;42261;52.094;4.326;2023-03-01T03:05:37;17.38;;;10.02;;
56363;SDS011;42261;52.094;4.326;2023-03-01T03:08:21;17.23;;;9.02;;
56363;SDS011;42261;52.094;4.326;2023-03-01T03:11:08;18.58;;;9.60;;
56363;SDS011;42261;52.094;4.326;2023-03-01T03:13:52;16.35;;;9.35;;
56363;SDS011;42261;52.094;4.326;2023-03-01T03:16:41;20.30;;;9.48;;
56363;SDS011;42261;52.094;4.326;2023-03-01T03:22:09;18.60;;;9.32;;
56363;SDS011;42261;52.094;4.326;2023-03-01T03:24:53;18.40;;;10.10;;
56363;SDS011;42261;52.094;4.326;2023-03-01T03:27:37;19.30;;;10.00;;
56363;SDS011;42261;52.094;4.326;2023-03-01T03:30:22;19.20;;;9.88;;
56363;SDS011;42261;52.094;4.326;2023-03-01T03:33:09;19.27;;;9.60;;
56363;SDS011;42261;52.094;4.326;2023-03-01T03:35:54;17.45;;;9.98;;
56363;SDS011;42261;52.094;4.326;2023-03-01T03:38:41;19.95;;;10.60;;
56363;SDS011;42261;52.094;4.326;2023-03-01T03:41:25;22.13;;;9.88;;
56363;SDS011;42261;52.094;4.326;2023-03-01T03:44:10;21.02;;;10.40;;
56363;SDS011;42261;52.094;4.326;2023-03-01T03:46:58;17.98;;;10.07;;
56363;SDS011;42261;52.094;4.326;2023-03-01T03:49:42;24.00;;;10.75;;
56363;SDS011;42261;52.094;4.326;2023-03-01T03:52:26;20.90;;;11.02;;
56363;SDS011;42261;52.094;4.326;2023-03-01T03:55:11;19.60;;;10.20;;
56363;SDS011;42261;52.094;4.326;2023-03-01T03:57:57;22.35;;;11.02;;
56363;SDS011;42261;52.094;4.326;2023-03-01T04:00:43;19.48;;;11.20;;
56363;SDS011;42261;52.094;4.326;2023-03-01T04:03:27;19.75;;;11.55;;
56363;SDS011;42261;52.094;4.326;2023-03-01T04:06:13;19.45;;;10.38;;
56363;SDS011;42261;52.094;4.326;2023-03-01T04:08:57;17.77;;;10.30;;
56363;SDS011;42261;52.094;4.326;2023-03-01T04:11:44;19.42;;;11.10;;
56363;SDS011;42261;52.094;4.326;2023-03-01T04:14:28;19.70;;;9.98;;
56363;SDS011;42261;52.094;4.326;2023-03-01T04:17:12;19.50;;;10.23;;
56363;SDS011;42261;52.094;4.326;2023-03-01T04:19:57;23.77;;;10.65;;
56363;SDS011;42261;52.094;4.326;2023-03-01T04:22:42;20.75;;;11.00;;
56363;SDS011;42261;52.094;4.326;2023-03-01T04:25:26;23.60;;;11.15;;
56363;SDS011;42261;52.094;4.326;2023-03-01T04:28:11;21.63;;;11.50;;
56363;SDS011;42261;52.094;4.326;2023-03-01T04:30:57;18.40;;;10.40;;
56363;SDS011;42261;52.094;4.326;2023-03-01T04:33:44;22.65;;;12.50;;
56363;SDS011;42261;52.094;4.326;2023-03-01T04:36:28;22.30;;;11.98;;
56363;SDS011;42261;52.094;4.326;2023-03-01T04:39:12;18.23;;;10.50;;
56363;SDS011;42261;52.094;4.326;2023-03-01T04:41:57;23.83;;;11.80;;
56363;SDS011;42261;52.094;4.326;2023-03-01T04:44:42;19.15;;;9.73;;
56363;SDS011;42261;52.094;4.326;2023-03-01T04:47:26;20.50;;;10.77;;
56363;SDS011;42261;52.094;4.326;2023-03-01T04:50:13;21.05;;;11.52;;
56363;SDS011;42261;52.094;4.326;2023-03-01T04:52:57;25.05;;;12.85;;
56363;SDS011;42261;52.094;4.326;2023-03-01T04:55:44;21.65;;;11.15;;
56363;SDS011;42261;52.094;4.326;2023-03-01T04:58:28;23.38;;;11.52;;
56363;SDS011;42261;52.094;4.326;2023-03-01T05:01:14;19.35;;;10.63;;
56363;SDS011;42261;52.094;4.326;2023-03-01T05:04:01;19.95;;;10.70;;
56363;SDS011;42261;52.094;4.326;2023-03-01T05:06:47;22.35;;;11.90;;
56363;SDS011;42261;52.094;4.326;2023-03-01T05:09:31;20.52;;;11.07;;
56363;SDS011;42261;52.094;4.326;2023-03-01T05:12:15;23.60;;;11.63;;
56363;SDS011;42261;52.094;4.326;2023-03-01T05:15:00;23.20;;;11.35;;
56363;SDS011;42261;52.094;4.326;2023-03-01T05:17:44;20.92;;;9.95;;
56363;SDS011;42261;52.094;4.326;2023-03-01T05:20:30;23.85;;;10.27;;
56363;SDS011;42261;52.094;4.326;2023-03-01T05:23:14;22.40;;;11.25;;
56363;SDS011;42261;52.094;4.326;2023-03-01T05:25:59;23.95;;;12.35;;
56363;SDS011;42261;52.094;4.326;2023-03-01T05:28:43;20.35;;;10.70;;
56363;SDS011;42261;52.094;4.326;2023-03-01T05:31:28;28.50;;;12.30;;
56363;SDS011;42261;52.094;4.326;2023-03-01T05:34:12;23.55;;;11.63;;
56363;SDS011;42261;52.094;4.326;2023-03-01T05:36:56;23.65;;;12.10;;
56363;SDS011;42261;52.094;4.326;2023-03-01T05:39:42;22.17;;;11.65;;
56363;SDS011;42261;52.094;4.326;2023-03-01T05:42:27;23.38;;;12.45;;
56363;SDS011;42261;52.094;4.326;2023-03-01T05:45:11;24.63;;;11.60;;
56363;SDS011;42261;52.094;4.326;2023-03-01T05:47:56;25.50;;;12.35;;
56363;SDS011;42261;52.094;4.326;2023-03-01T05:50:42;22.85;;;10.60;;
56363;SDS011;42261;52.094;4.326;2023-03-01T05:53:27;23.60;;;11.88;;
56363;SDS011;42261;52.094;4.326;2023-03-01T05:56:11;21.48;;;11.18;;
56363;SDS011;42261;52.094;4.326;2023-03-01T05:58:55;20.67;;;10.90;;
56363;SDS011;42261;52.094;4.326;2023-03-01T06:01:39;20.85;;;11.43;;
56363;SDS011;42261;52.094;4.326;2023-03-01T06:04:24;22.67;;;12.18;;
56363;SDS011;42261;52.094;4.326;2023-03-01T06:07:08;23.85;;;11.32;;
56363;SDS011;42261;52.094;4.326;2023-03-01T06:09:53;23.05;;;12.18;;
56363;SDS011;42261;52.094;4.326;2023-03-01T06:12:37;26.45;;;13.07;;
56363;SDS011;42261;52.094;4.326;2023-03-01T06:15:22;21.27;;;11.15;;
56363;SDS011;42261;52.094;4.326;2023-03-01T06:18:06;22.88;;;11.77;;
56363;SDS011;42261;52.094;4.326;2023-03-01T06:20:54;24.70;;;12.75;;
56363;SDS011;42261;52.094;4.326;2023-03-01T06:23:40;23.75;;;11.68;;
56363;SDS011;42261;52.094;4.326;2023-03-01T06:26:25;25.92;;;11.88;;
56363;SDS011;42261;52.094;4.326;2023-03-01T06:29:09;24.15;;;13.27;;
56363;SDS011;42261;52.094;4.326;2023-03-01T06:31:53;27.63;;;13.00;;
56363;SDS011;42261;52.094;4.326;2023-03-01T06:34:37;24.02;;;12.00;;
56363;SDS011;42261;52.094;4.326;2023-03-01T06:37:21;24.63;;;11.48;;
56363;SDS011;42261;52.094;4.326;2023-03-01T06:40:06;20.80;;;11.68;;
56363;SDS011;42261;52.094;4.326;2023-03-01T06:42:51;21.75;;;11.95;;
56363;SDS011;42261;52.094;4.326;2023-03-01T06:45:36;25.52;;;13.18;;
56363;SDS011;42261;52.094;4.326;2023-03-01T06:48:20;21.13;;;11.18;;
56363;SDS011;42261;52.094;4.326;2023-03-01T06:51:05;24.83;;;11.77;;
56363;SDS011;42261;52.094;4.326;2023-03-01T06:53:49;20.55;;;11.10;;
56363;SDS011;42261;52.094;4.326;2023-03-01T06:56:33;21.90;;;11.30;;
56363;SDS011;42261;52.094;4.326;2023-03-01T06:59:17;23.58;;;11.00;;
56363;SDS011;42261;52.094;4.326;2023-03-01T07:02:01;21.45;;;11.18;;
56363;SDS011;42261;52.094;4.326;2023-03-01T07:04:45;24.27;;;11.68;;
56363;SDS011;42261;52.094;4.326;2023-03-01T07:07:29;28.95;;;14.20;;
56363;SDS011;42261;52.094;4.326;2023-03-01T07:10:14;22.48;;;12.18;;
56363;SDS011;42261;52.094;4.326;2023-03-01T07:12:58;26.67;;;13.55;;
56363;SDS011;42261;52.094;4.326;2023-03-01T07:15:42;26.42;;;14.75;;
56363;SDS011;42261;52.094;4.326;2023-03-01T07:18:26;26.17;;;12.93;;
56363;SDS011;42261;52.094;4.326;2023-03-01T07:21:11;22.63;;;11.10;;
56363;SDS011;42261;52.094;4.326;2023-03-01T07:23:55;24.75;;;12.30;;
56363;SDS011;42261;52.094;4.326;2023-03-01T07:26:39;24.70;;;11.35;;
56363;SDS011;42261;52.094;4.326;2023-03-01T07:29:23;20.58;;;11.02;;
56363;SDS011;42261;52.094;4.326;2023-03-01T07:32:07;22.55;;;11.93;;
56363;SDS011;42261;52.094;4.326;2023-03-01T07:34:52;22.63;;;11.80;;
56363;SDS011;42261;52.094;4.326;2023-03-01T07:37:35;24.33;;;12.20;;
56363;SDS011;42261;52.094;4.326;2023-03-01T07:40:20;19.45;;;10.10;;
56363;SDS011;42261;52.094;4.326;2023-03-01T07:43:04;17.42;;;9.35;;
56363;SDS011;42261;52.094;4.326;2023-03-01T07:45:51;23.17;;;10.32;;
56363;SDS011;42261;52.094;4.326;2023-03-01T07:48:36;20.60;;;10.77;;
56363;SDS011;42261;52.094;4.326;2023-03-01T07:51:21;18.92;;;8.95;;
56363;SDS011;42261;52.094;4.326;2023-03-01T07:54:05;17.00;;;9.23;;
56363;SDS011;42261;52.094;4.326;2023-03-01T07:56:49;16.27;;;8.75;;
56363;SDS011;42261;52.094;4.326;2023-03-01T07:59:33;17.48;;;9.05;;
56363;SDS011;42261;52.094;4.326;2023-03-01T08:02:17;19.13;;;10.52;;
56363;SDS011;42261;52.094;4.326;2023-03-01T08:05:01;20.40;;;9.88;;
56363;SDS011;42261;52.094;4.326;2023-03-01T08:07:45;19.52;;;10.13;;
56363;SDS011;42261;52.094;4.326;2023-03-01T08:10:31;17.30;;;9.18;;
56363;SDS011;42261;52.094;4.326;2023-03-01T08:13:18;19.15;;;10.13;;
56363;SDS011;42261;52.094;4.326;2023-03-01T08:16:07;20.08;;;10.35;;
56363;SDS011;42261;52.094;4.326;2023-03-01T08:18:52;16.05;;;9.60;;
56363;SDS011;42261;52.094;4.326;2023-03-01T08:21:36;15.68;;;8.85;;
56363;SDS011;42261;52.094;4.326;2023-03-01T08:24:20;16.33;;;8.40;;
56363;SDS011;42261;52.094;4.326;2023-03-01T08:27:08;21.70;;;10.35;;
56363;SDS011;42261;52.094;4.326;2023-03-01T08:29:52;18.33;;;9.80;;
56363;SDS011;42261;52.094;4.326;2023-03-01T08:32:37;19.20;;;9.63;;
56363;SDS011;42261;52.094;4.326;2023-03-01T08:35:16;23.05;;;10.80;;
56363;SDS011;42261;52.094;4.326;2023-03-01T08:38:01;22.48;;;10.63;;
56363;SDS011;42261;52.094;4.326;2023-03-01T08:40:47;22.83;;;11.80;;
56363;SDS011;42261;52.094;4.326;2023-03-01T08:43:31;19.50;;;11.95;;
56363;SDS011;42261;52.094;4.326;2023-03-01T08:46:16;23.80;;;11.02;;
56363;SDS011;42261;52.094;4.326;2023-03-01T08:49:09;20.17;;;10.32;;
56363;SDS011;42261;52.094;4.326;2023-03-01T08:51:55;23.45;;;10.30;;
56363;SDS011;42261;52.094;4.326;2023-03-01T08:54:40;19.63;;;10.35;;
56363;SDS011;42261;52.094;4.326;2023-03-01T08:57:24;22.92;;;10.82;;
56363;SDS011;42261;52.094;4.326;2023-03-01T09:00:09;18.42;;;11.02;;
56363;SDS011;42261;52.094;4.326;2023-03-01T09:02:53;24.70;;;12.85;;
56363;SDS011;42261;52.094;4.326;2023-03-01T09:05:37;22.60;;;12.43;;
56363;SDS011;42261;52.094;4.326;2023-03-01T09:08:21;22.05;;;11.38;;
56363;SDS011;42261;52.094;4.326;2023-03-01T09:11:06;20.23;;;11.05;;
56363;SDS011;42261;52.094;4.326;2023-03-01T09:13:51;20.40;;;11.15;;
56363;SDS011;42261;52.094;4.326;2023-03-01T09:16:35;21.27;;;11.05;;
56363;SDS011;42261;52.094;4.326;2023-03-01T09:19:22;19.50;;;11.82;;
56363;SDS011;42261;52.094;4.326;2023-03-01T09:22:06;20.92;;;11.55;;
56363;SDS011;42261;52.094;4.326;2023-03-01T09:24:50;20.70;;;11.02;;
56363;SDS011;42261;52.094;4.326;2023-03-01T09:27:35;29.15;;;11.32;;
56363;SDS011;42261;52.094;4.326;2023-03-01T09:30:19;21.08;;;12.38;;
56363;SDS011;42261;52.094;4.326;2023-03-01T09:33:03;19.33;;;11.18;;
56363;SDS011;42261;52.094;4.326;2023-03-01T09:35:47;22.40;;;11.18;;
56363;SDS011;42261;52.094;4.326;2023-03-01T09:38:31;21.02;;;11.57;;
56363;SDS011;42261;52.094;4.326;2023-03-01T09:44:25;22.52;;;11.13;;
56363;SDS011;42261;52.094;4.326;2023-03-01T09:47:12;20.20;;;10.68;;
56363;SDS011;42261;52.094;4.326;2023-03-01T09:53:06;20.17;;;10.75;;
56363;SDS011;42261;52.094;4.326;2023-03-01T10:01:33;19.90;;;10.00;;
56363;SDS011;42261;52.094;4.326;2023-03-01T10:13:17;16.83;;;8.77;;
56363;SDS011;42261;52.094;4.326;2023-03-01T10:16:05;14.55;;;8.40;;
56363;SDS011;42261;52.094;4.326;2023-03-01T10:18:55;10.15;;;6.35;;
56363;SDS011;42261;52.094;4.326;2023-03-01T10:21:41;14.63;;;7.57;;
56363;SDS011;42261;52.094;4.326;2023-03-01T10:24:26;12.20;;;6.30;;
56363;SDS011;42261;52.094;4.326;2023-03-01T10:27:25;10.18;;;5.88;;
56363;SDS011;42261;52.094;4.326;2023-03-01T10:33:00;13.20;;;6.07;;
56363;SDS011;42261;52.094;4.326;2023-03-01T10:35:46;13.00;;;5.90;;
56363;SDS011;42261;52.094;4.326;2023-03-01T10:38:46;12.40;;;5.88;;
56363;SDS011;42261;52.094;4.326;2023-03-01T10:41:31;9.87;;;6.73;;
56363;SDS011;42261;52.094;4.326;2023-03-01T10:44:35;10.88;;;5.32;;
56363;SDS011;42261;52.094;4.326;2023-03-01T10:47:20;8.82;;;4.72;;
56363;SDS011;42261;52.094;4.326;2023-03-01T10:50:06;9.07;;;5.13;;
56363;SDS011;42261;52.094;4.326;2023-03-01T10:53:02;8.63;;;3.75;;
56363;SDS011;42261;52.094;4.326;2023-03-01T10:55:47;6.88;;;3.63;;
56363;SDS011;42261;52.094;4.326;2023-03-01T10:58:41;9.15;;;4.10;;
56363;SDS011;42261;52.094;4.326;2023-03-01T11:01:39;6.88;;;3.85;;
56363;SDS011;42261;52.094;4.326;2023-03-01T11:04:23;9.32;;;4.13;;
56363;SDS011;42261;52.094;4.326;2023-03-01T11:07:10;7.10;;;3.97;;
56363;SDS011;42261;52.094;4.326;2023-03-01T11:09:56;7.07;;;3.85;;
56363;SDS011;42261;52.094;4.326;2023-03-01T11:12:40;6.93;;;3.90;;
56363;SDS011;42261;52.094;4.326;2023-03-01T11:15:25;5.75;;;3.95;;
56363;SDS011;42261;52.094;4.326;2023-03-01T11:18:20;7.18;;;3.92;;
56363;SDS011;42261;52.094;4.326;2023-03-01T11:21:04;10.27;;;4.00;;
56363;SDS011;42261;52.094;4.326;2023-03-01T11:23:49;8.45;;;4.30;;
56363;SDS011;42261;52.094;4.326;2023-03-01T11:26:34;7.35;;;3.92;;
56363;SDS011;42261;52.094;4.326;2023-03-01T11:29:27;6.90;;;4.55;;
56363;SDS011;42261;52.094;4.326;2023-03-01T11:32:13;8.07;;;4.30;;
56363;SDS011;42261;52.094;4.326;2023-03-01T11:35:01;7.05;;;3.78;;
56363;SDS011;42261;52.094;4.326;2023-03-01T11:40:41;14.07;;;5.15;;
56363;SDS011;42261;52.094;4.326;2023-03-01T11:43:33;10.02;;;5.00;;
56363;SDS011;42261;52.094;4.326;2023-03-01T11:58:13;9.65;;;5.90;;
56363;SDS011;42261;52.094;4.326;2023-03-01T12:04:47;13.23;;;6.15;;
56363;SDS011;42261;52.094;4.326;2023-03-01T12:12:36;13.52;;;5.03;;
56363;SDS011;42261;52.094;4.326;2023-03-01T12:15:34;12.40;;;5.75;;
56363;SDS011;42261;52.094;4.326;2023-03-01T12:33:10;9.93;;;4.88;;
56363;SDS011;42261;52.094;4.326;2023-03-01T12:38:50;7.05;;;3.95;;
56363;SDS011;42261;52.094;4.326;2023-03-01T12:41:46;6.65;;;3.80;;
56363;SDS011;42261;52.094;4.326;2023-03-01T12:50:24;7.35;;;3.90;;
56363;SDS011;42261;52.094;4.326;2023-03-01T12:53:17;9.00;;;4.18;;
56363;SDS011;42261;52.094;4.326;2023-03-01T12:56:08;8.00;;;4.38;;
56363;SDS011;42261;52.094;4.326;2023-03-01T13:07:29;10.10;;;5.53;;
56363;SDS011;42261;52.094;4.326;2023-03-01T13:15:47;11.20;;;5.87;;
56363;SDS011;42261;52.094;4.326;2023-03-01T13:18:32;8.98;;;5.00;;
56363;SDS011;42261;52.094;4.326;2023-03-01T13:21:29;11.73;;;5.82;;
56363;SDS011;42261;52.094;4.326;2023-03-01T13:24:28;10.52;;;5.90;;
56363;SDS011;42261;52.094;4.326;2023-03-01T13:30:01;14.50;;;6.85;;
56363;SDS011;42261;52.094;4.326;2023-03-01T13:32:49;10.23;;;6.10;;
56363;SDS011;42261;52.094;4.326;2023-03-01T13:35:43;10.77;;;5.53;;
56363;SDS011;42261;52.094;4.326;2023-03-01T13:38:47;10.60;;;5.63;;
56363;SDS011;42261;52.094;4.326;2023-03-01T13:44:26;14.60;;;6.40;;
56363;SDS011;42261;52.094;4.326;2023-03-01T13:47:15;13.43;;;5.95;;
56363;SDS011;42261;52.094;4.326;2023-03-01T13:50:01;10.40;;;5.22;;
56363;SDS011;42261;52.094;4.326;2023-03-01T13:55:42;11.63;;;5.72;;
56363;SDS011;42261;52.094;4.326;2023-03-01T13:58:31;16.13;;;6.93;;
56363;SDS011;42261;52.094;4.326;2023-03-01T14:01:29;11.03;;;5.93;;
56363;SDS011;42261;52.094;4.326;2023-03-01T14:04:21;12.07;;;5.22;;
56363;SDS011;42261;52.094;4.326;2023-03-01T14:07:16;9.40;;;5.57;;
56363;SDS011;42261;52.094;4.326;2023-03-01T14:10:02;11.57;;;5.05;;
56363;SDS011;42261;52.094;4.326;2023-03-01T14:12:52;10.02;;;4.88;;
56363;SDS011;42261;52.094;4.326;2023-03-01T14:15:39;9.95;;;5.03;;
56363;SDS011;42261;52.094;4.326;2023-03-01T14:18:28;11.43;;;5.65;;
56363;SDS011;42261;52.094;4.326;2023-03-01T14:23:59;13.00;;;5.35;;
56363;SDS011;42261;52.094;4.326;2023-03-01T14:26:45;10.20;;;5.10;;
56363;SDS011;42261;52.094;4.326;2023-03-01T14:29:39;9.65;;;5.20;;
56363;SDS011;42261;52.094;4.326;2023-03-01T14:32:24;9.80;;;5.55;;
56363;SDS011;42261;52.094;4.326;2023-03-01T14:35:21;9.40;;;4.28;;
56363;SDS011;42261;52.094;4.326;2023-03-01T14:38:06;9.50;;;4.85;;
56363;SDS011;42261;52.094;4.326;2023-03-01T14:40:51;10.07;;;4.88;;
56363;SDS011;42261;52.094;4.326;2023-03-01T14:43:40;8.48;;;4.38;;
56363;SDS011;42261;52.094;4.326;2023-03-01T14:46:33;7.93;;;4.13;;
56363;SDS011;42261;52.094;4.326;2023-03-01T14:49:23;11.98;;;5.30;;
56363;SDS011;42261;52.094;4.326;2023-03-01T14:52:19;9.43;;;4.68;;
56363;SDS011;42261;52.094;4.326;2023-03-01T14:55:18;13.57;;;5.00;;
56363;SDS011;42261;52.094;4.326;2023-03-01T14:58:05;10.77;;;5.75;;
56363;SDS011;42261;52.094;4.326;2023-03-01T15:01:12;11.68;;;5.53;;
56363;SDS011;42261;52.094;4.326;2023-03-01T15:03:53;11.93;;;4.20;;
56363;SDS011;42261;52.094;4.326;2023-03-01T15:06:37;9.55;;;4.60;;
56363;SDS011;42261;52.094;4.326;2023-03-01T15:09:23;9.15;;;4.10;;
56363;SDS011;42261;52.094;4.326;2023-03-01T15:15:21;7.38;;;4.15;;
56363;SDS011;42261;52.094;4.326;2023-03-01T15:18:26;7.25;;;3.88;;
56363;SDS011;42261;52.094;4.326;2023-03-01T15:24:27;9.02;;;4.10;;
56363;SDS011;42261;52.094;4.326;2023-03-01T15:27:14;9.50;;;4.60;;
56363;SDS011;42261;52.094;4.326;2023-03-01T15:30:00;8.75;;;4.07;;
56363;SDS011;42261;52.094;4.326;2023-03-01T15:32:46;8.02;;;4.15;;
56363;SDS011;42261;52.094;4.326;2023-03-01T15:35:41;7.25;;;3.85;;
56363;SDS011;42261;52.094;4.326;2023-03-01T15:38:27;6.30;;;3.63;;
56363;SDS011;42261;52.094;4.326;2023-03-01T15:41:25;7.72;;;5.10;;
56363;SDS011;42261;52.094;4.326;2023-03-01T15:44:17;10.43;;;5.00;;
56363;SDS011;42261;52.094;4.326;2023-03-01T15:47:20;8.73;;;4.45;;
56363;SDS011;42261;52.094;4.326;2023-03-01T15:50:05;7.97;;;4.10;;
56363;SDS011;42261;52.094;4.326;2023-03-01T15:53:00;9.45;;;4.25;;
56363;SDS011;42261;52.094;4.326;2023-03-01T15:55:45;7.93;;;4.78;;
56363;SDS011;42261;52.094;4.326;2023-03-01T15:58:30;9.90;;;4.55;;
56363;SDS011;42261;52.094;4.326;2023-03-01T16:01:16;6.45;;;4.20;;
56363;SDS011;42261;52.094;4.326;2023-03-01T16:04:00;6.75;;;3.35;;
56363;SDS011;42261;52.094;4.326;2023-03-01T16:06:44;10.30;;;3.83;;
56363;SDS011;42261;52.094;4.326;2023-03-01T16:09:29;5.38;;;3.13;;
56363;SDS011;42261;52.094;4.326;2023-03-01T16:12:13;6.85;;;3.40;;
56363;SDS011;42261;52.094;4.326;2023-03-01T16:14:58;6.97;;;4.00;;
56363;SDS011;42261;52.094;4.326;2023-03-01T16:17:43;5.60;;;3.83;;
56363;SDS011;42261;52.094;4.326;2023-03-01T16:20:28;8.25;;;3.72;;
56363;SDS011;42261;52.094;4.326;2023-03-01T16:23:12;8.18;;;3.53;;
56363;SDS011;42261;52.094;4.326;2023-03-01T16:25:59;5.90;;;3.42;;
56363;SDS011;42261;52.094;4.326;2023-03-01T16:28:44;8.97;;;4.53;;
56363;SDS011;42261;52.094;4.326;2023-03-01T16:31:29;8.43;;;4.28;;
56363;SDS011;42261;52.094;4.326;2023-03-01T16:34:14;7.90;;;3.97;;
56363;SDS011;42261;52.094;4.326;2023-03-01T16:36:59;7.78;;;4.88;;
56363;SDS011;42261;52.094;4.326;2023-03-01T16:39:43;9.13;;;4.50;;
56363;SDS011;42261;52.094;4.326;2023-03-01T16:42:27;9.27;;;4.82;;
56363;SDS011;42261;52.094;4.326;2023-03-01T16:45:11;9.00;;;3.42;;
56363;SDS011;42261;52.094;4.326;2023-03-01T16:47:56;6.13;;;3.45;;
56363;SDS011;42261;52.094;4.326;2023-03-01T16:50:40;7.88;;;4.32;;
56363;SDS011;42261;52.094;4.326;2023-03-01T16:53:24;9.93;;;4.53;;
56363;SDS011;42261;52.094;4.326;2023-03-01T16:56:09;8.52;;;4.63;;
56363;SDS011;42261;52.094;4.326;2023-03-01T16:58:54;9.88;;;5.30;;
56363;SDS011;42261;52.094;4.326;2023-03-01T17:01:38;8.82;;;3.58;;
56363;SDS011;42261;52.094;4.326;2023-03-01T17:04:24;10.95;;;4.68;;
56363;SDS011;42261;52.094;4.326;2023-03-01T17:07:08;9.20;;;4.10;;
56363;SDS011;42261;52.094;4.326;2023-03-01T17:09:52;5.65;;;3.35;;
56363;SDS011;42261;52.094;4.326;2023-03-01T17:12:36;6.75;;;3.70;;
56363;SDS011;42261;52.094;4.326;2023-03-01T17:15:20;7.72;;;4.07;;
56363;SDS011;42261;52.094;4.326;2023-03-01T17:18:05;9.07;;;4.43;;
56363;SDS011;42261;52.094;4.326;2023-03-01T17:20:49;7.75;;;4.15;;
56363;SDS011;42261;52.094;4.326;2023-03-01T17:23:35;5.78;;;3.50;;
56363;SDS011;42261;52.094;4.326;2023-03-01T17:26:19;7.82;;;4.32;;
56363;SDS011;42261;52.094;4.326;2023-03-01T17:29:05;10.77;;;4.22;;
56363;SDS011;42261;52.094;4.326;2023-03-01T17:31:49;8.90;;;5.63;;
56363;SDS011;42261;52.094;4.326;2023-03-01T17:34:33;9.32;;;3.58;;
56363;SDS011;42261;52.094;4.326;2023-03-01T17:37:18;7.15;;;3.60;;
56363;SDS011;42261;52.094;4.326;2023-03-01T17:40:02;7.47;;;3.83;;
56363;SDS011;42261;52.094;4.326;2023-03-01T17:42:46;8.18;;;3.78;;
56363;SDS011;42261;52.094;4.326;2023-03-01T17:45:30;8.48;;;3.75;;
56363;SDS011;42261;52.094;4.326;2023-03-01T17:48:15;8.10;;;3.97;;
56363;SDS011;42261;52.094;4.326;2023-03-01T17:51:04;7.85;;;5.10;;
56363;SDS011;42261;52.094;4.326;2023-03-01T17:53:48;8.80;;;3.58;;
56363;SDS011;42261;52.094;4.326;2023-03-01T17:56:32;7.00;;;3.55;;
56363;SDS011;42261;52.094;4.326;2023-03-01T17:59:16;6.22;;;3.13;;
56363;SDS011;42261;52.094;4.326;2023-03-01T18:02:01;6.95;;;3.28;;
56363;SDS011;42261;52.094;4.326;2023-03-01T18:04:45;6.40;;;3.10;;
56363;SDS011;42261;52.094;4.326;2023-03-01T18:07:29;6.85;;;3.60;;
56363;SDS011;42261;52.094;4.326;2023-03-01T18:10:13;9.93;;;3.83;;
56363;SDS011;42261;52.094;4.326;2023-03-01T18:12:57;11.45;;;5.20;;
56363;SDS011;42261;52.094;4.326;2023-03-01T18:15:42;12.88;;;5.40;;
56363;SDS011;42261;52.094;4.326;2023-03-01T18:18:27;12.95;;;7.00;;